Airfield :
LOGIN :

Register | Disclaimer

   EN    FR    IT 

 










Legend :    VFR   Marginal VFR   IFR   Intensive IFR   Very Intensive IFR
Visi :
Ceiling :
>= 8 km
>= 3000ft
5 to 8 km
1000 to 3000 ft
1500m to 5 km
500 to 1000 ft
800 to 1500m
200 to 500 ft
< 800m
< 200 ft
Symbols :   Thunderstorms  Fog  Heavy snow  Heavy precipitations  Wind > 20 kt
SIGMETs :     Misc.  Thunderstorms  Icing  Turbulence  Mountain Waves  Volcanic Ashes






- Airport Elevation : 302 ft
- IATA code : MAH


LEMH - Menorca

CURRENT METAR :
  • 170400Z AUTO 20010KT 170V240 9999 OVC013/// 13/10 Q1026

EXPIRED METARs :
  • 170330Z AUTO 21008KT 170V230 9999 OVC012/// 13/11 Q1026
  • 170300Z AUTO 19009KT 9999 BKN013/// OVC015/// 13/10 Q1026
  • 170230Z AUTO 21009KT 9999 BKN014/// OVC016/// 13/10 Q1026
  • 170200Z AUTO 21009KT 170V240 9999 SCT013/// OVC015/// 13/11 Q1026
  • 170130Z AUTO 20010KT 170V230 9999 BKN014/// OVC016/// 14/11 Q1027

TAF TAF LEMH
Valid from the 17 at 03:00 until the 18 at 03:00 UTC


170200Z 1703/1803 20009KT 9999 BKN015 TX18/1712Z TN11/1706Z
PROB40
TEMPO 1703/1708 3000 BR OVC010
BECMG 1720/1722 03010KT



MET'MAP, your aeronautical weather chart ! - Copyright ORBIFLY December 2007 - Disclaimer

ORBIFLY MET'MAP TEAM :

Programming & Development : Alexandra Zaïnal
Concept & original design : Baudouin d'Aumeries
Assistance for programming : Marc-Olivier Méhu
Technical & hardware support : Manuel Goepfert

Contact : metmap@orbifly.com




SOURCES & CREDITS :

   NOAA